sensor_id;sensor_type;location;lat;lon;timestamp;pressure;altitude;pressure_sealevel;temperature;humidity
69145;BME280;56251;50.324;17.574;2023-04-24T00:00:56;100852.21;;;15.58;67.02
69145;BME280;56251;50.324;17.574;2023-04-24T00:01:49;100845.34;;;15.62;67.01
69145;BME280;56251;50.324;17.574;2023-04-24T00:04:02;100844.80;;;15.61;66.89
69145;BME280;56251;50.324;17.574;2023-04-24T00:04:56;100843.48;;;15.60;66.98
69145;BME280;56251;50.324;17.574;2023-04-24T00:07:09;100843.09;;;15.70;66.60
69145;BME280;56251;50.324;17.574;2023-04-24T00:08:02;100842.12;;;15.68;66.59
69145;BME280;56251;50.324;17.574;2023-04-24T00:10:15;100839.20;;;15.77;66.21
69145;BME280;56251;50.324;17.574;2023-04-24T00:11:08;100839.36;;;15.76;66.18
69145;BME280;56251;50.324;17.574;2023-04-24T00:13:22;100839.55;;;15.84;65.77
69145;BME280;56251;50.324;17.574;2023-04-24T00:14:16;100834.00;;;15.79;65.78
69145;BME280;56251;50.324;17.574;2023-04-24T00:16:30;100832.21;;;15.81;65.69
69145;BME280;56251;50.324;17.574;2023-04-24T00:17:29;100830.77;;;15.79;65.71
69145;BME280;56251;50.324;17.574;2023-04-24T00:19:41;100828.38;;;15.82;65.64
69145;BME280;56251;50.324;17.574;2023-04-24T00:20:36;100827.05;;;15.88;65.50
69145;BME280;56251;50.324;17.574;2023-04-24T00:22:47;100823.51;;;15.78;65.67
69145;BME280;56251;50.324;17.574;2023-04-24T00:23:43;100821.07;;;15.76;65.70
69145;BME280;56251;50.324;17.574;2023-04-24T00:25:53;100816.19;;;15.72;65.92
69145;BME280;56251;50.324;17.574;2023-04-24T00:26:49;100818.26;;;15.78;65.80
69145;BME280;56251;50.324;17.574;2023-04-24T00:28:59;100815.22;;;15.82;65.59
69145;BME280;56251;50.324;17.574;2023-04-24T00:29:55;100816.74;;;15.85;65.53
69145;BME280;56251;50.324;17.574;2023-04-24T00:32:07;100809.33;;;15.82;65.60
69145;BME280;56251;50.324;17.574;2023-04-24T00:33:03;100814.38;;;15.78;65.75
69145;BME280;56251;50.324;17.574;2023-04-24T00:35:15;100809.41;;;15.74;66.00
69145;BME280;56251;50.324;17.574;2023-04-24T00:36:15;100813.65;;;15.62;66.33
69145;BME280;56251;50.324;17.574;2023-04-24T00:38:21;100812.27;;;15.66;66.47
69145;BME280;56251;50.324;17.574;2023-04-24T00:39:23;100807.60;;;15.63;66.63
69145;BME280;56251;50.324;17.574;2023-04-24T00:41:29;100809.89;;;15.61;66.86
69145;BME280;56251;50.324;17.574;2023-04-24T00:42:30;100808.34;;;15.49;67.22
69145;BME280;56251;50.324;17.574;2023-04-24T00:44:37;100805.47;;;15.48;67.44
69145;BME280;56251;50.324;17.574;2023-04-24T00:45:37;100801.10;;;15.36;67.97
69145;BME280;56251;50.324;17.574;2023-04-24T00:47:43;100799.69;;;15.32;68.18
69145;BME280;56251;50.324;17.574;2023-04-24T00:48:43;100799.36;;;15.29;68.36
69145;BME280;56251;50.324;17.574;2023-04-24T00:50:50;100800.44;;;15.27;68.53
69145;BME280;56251;50.324;17.574;2023-04-24T00:51:50;100795.06;;;15.22;68.60
69145;BME280;56251;50.324;17.574;2023-04-24T00:54:01;100799.87;;;15.12;68.97
69145;BME280;56251;50.324;17.574;2023-04-24T00:54:56;100795.04;;;15.11;69.13
69145;BME280;56251;50.324;17.574;2023-04-24T00:57:09;100788.91;;;14.91;69.47
69145;BME280;56251;50.324;17.574;2023-04-24T00:58:04;100790.88;;;14.89;69.68
69145;BME280;56251;50.324;17.574;2023-04-24T01:00:16;100789.70;;;14.94;69.65
69145;BME280;56251;50.324;17.574;2023-04-24T01:01:10;100793.57;;;14.94;69.61
69145;BME280;56251;50.324;17.574;2023-04-24T01:03:24;100791.03;;;14.88;69.75
69145;BME280;56251;50.324;17.574;2023-04-24T01:04:17;100791.72;;;14.84;69.86
69145;BME280;56251;50.324;17.574;2023-04-24T01:06:32;100796.19;;;14.71;70.12
69145;BME280;56251;50.324;17.574;2023-04-24T01:07:25;100791.45;;;14.68;70.01
69145;BME280;56251;50.324;17.574;2023-04-24T01:09:41;100793.54;;;14.49;70.34
69145;BME280;56251;50.324;17.574;2023-04-24T01:10:37;100791.39;;;14.56;70.22
69145;BME280;56251;50.324;17.574;2023-04-24T01:12:49;100787.34;;;14.55;70.21
69145;BME280;56251;50.324;17.574;2023-04-24T01:13:46;100788.98;;;14.49;70.17
69145;BME280;56251;50.324;17.574;2023-04-24T01:15:55;100789.49;;;14.35;69.69
69145;BME280;56251;50.324;17.574;2023-04-24T01:16:52;100787.29;;;14.32;69.71
69145;BME280;56251;50.324;17.574;2023-04-24T01:19:02;100786.91;;;14.28;70.92
69145;BME280;56251;50.324;17.574;2023-04-24T01:19:59;100784.47;;;14.38;70.66
69145;BME280;56251;50.324;17.574;2023-04-24T01:22:14;100786.12;;;14.49;70.30
69145;BME280;56251;50.324;17.574;2023-04-24T01:23:08;100779.95;;;14.43;70.44
69145;BME280;56251;50.324;17.574;2023-04-24T01:25:21;100786.98;;;14.21;70.64
69145;BME280;56251;50.324;17.574;2023-04-24T01:26:16;100788.83;;;14.21;70.75
69145;BME280;56251;50.324;17.574;2023-04-24T01:28:29;100780.64;;;14.21;70.32
69145;BME280;56251;50.324;17.574;2023-04-24T01:29:25;100783.11;;;14.20;70.28
69145;BME280;56251;50.324;17.574;2023-04-24T01:31:38;100781.10;;;14.18;69.27
69145;BME280;56251;50.324;17.574;2023-04-24T01:32:32;100780.56;;;14.27;68.51
69145;BME280;56251;50.324;17.574;2023-04-24T01:34:46;100774.14;;;14.38;67.95
69145;BME280;56251;50.324;17.574;2023-04-24T01:35:40;100769.59;;;14.42;60.72
69145;BME280;56251;50.324;17.574;2023-04-24T01:37:52;100767.78;;;14.57;59.02
69145;BME280;56251;50.324;17.574;2023-04-24T01:38:46;100766.09;;;14.49;55.35
69145;BME280;56251;50.324;17.574;2023-04-24T01:40:59;100762.48;;;14.63;57.98
69145;BME280;56251;50.324;17.574;2023-04-24T01:41:52;100765.54;;;14.66;58.26
69145;BME280;56251;50.324;17.574;2023-04-24T01:44:07;100765.57;;;14.61;58.06
69145;BME280;56251;50.324;17.574;2023-04-24T01:45:02;100759.29;;;14.71;56.75
69145;BME280;56251;50.324;17.574;2023-04-24T01:47:13;100761.53;;;14.83;57.69
69145;BME280;56251;50.324;17.574;2023-04-24T01:48:13;100763.66;;;14.84;58.01
69145;BME280;56251;50.324;17.574;2023-04-24T01:50:25;100756.76;;;14.84;49.40
69145;BME280;56251;50.324;17.574;2023-04-24T01:51:20;100759.11;;;14.83;50.49
69145;BME280;56251;50.324;17.574;2023-04-24T01:53:32;100760.37;;;15.01;46.94
69145;BME280;56251;50.324;17.574;2023-04-24T01:54:28;100762.14;;;15.12;46.18
69145;BME280;56251;50.324;17.574;2023-04-24T01:56:43;100760.70;;;15.27;43.95
69145;BME280;56251;50.324;17.574;2023-04-24T01:57:35;100752.73;;;15.33;43.50
69145;BME280;56251;50.324;17.574;2023-04-24T01:59:49;100753.02;;;15.53;43.37
69145;BME280;56251;50.324;17.574;2023-04-24T02:00:41;100750.39;;;15.60;42.51
69145;BME280;56251;50.324;17.574;2023-04-24T02:02:57;100750.43;;;15.75;42.32
69145;BME280;56251;50.324;17.574;2023-04-24T02:03:49;100743.23;;;15.73;42.31
69145;BME280;56251;50.324;17.574;2023-04-24T02:06:04;100745.60;;;15.89;42.77
69145;BME280;56251;50.324;17.574;2023-04-24T02:07:00;100743.73;;;15.95;41.50
69145;BME280;56251;50.324;17.574;2023-04-24T02:09:12;100734.51;;;16.05;42.22
69145;BME280;56251;50.324;17.574;2023-04-24T02:10:07;100742.94;;;16.07;41.46
69145;BME280;56251;50.324;17.574;2023-04-24T02:12:19;100733.50;;;16.23;40.74
69145;BME280;56251;50.324;17.574;2023-04-24T02:13:13;100738.24;;;16.29;40.59
69145;BME280;56251;50.324;17.574;2023-04-24T02:15:25;100731.35;;;16.30;39.79
69145;BME280;56251;50.324;17.574;2023-04-24T02:16:19;100726.46;;;16.33;39.91
69145;BME280;56251;50.324;17.574;2023-04-24T02:18:33;100732.11;;;16.42;40.20
69145;BME280;56251;50.324;17.574;2023-04-24T02:19:27;100721.71;;;16.45;39.85
69145;BME280;56251;50.324;17.574;2023-04-24T02:21:40;100724.96;;;16.46;39.54
69145;BME280;56251;50.324;17.574;2023-04-24T02:22:35;100718.22;;;16.50;39.60
69145;BME280;56251;50.324;17.574;2023-04-24T02:24:46;100713.64;;;16.52;39.30
69145;BME280;56251;50.324;17.574;2023-04-24T02:25:46;100717.19;;;16.49;39.35
69145;BME280;56251;50.324;17.574;2023-04-24T02:27:58;100719.93;;;16.56;38.90
69145;BME280;56251;50.324;17.574;2023-04-24T02:28:52;100720.23;;;16.54;38.82
69145;BME280;56251;50.324;17.574;2023-04-24T02:31:04;100716.41;;;16.51;39.11
69145;BME280;56251;50.324;17.574;2023-04-24T02:31:58;100710.09;;;16.54;38.84
69145;BME280;56251;50.324;17.574;2023-04-24T02:34:11;100710.27;;;16.65;38.62
69145;BME280;56251;50.324;17.574;2023-04-24T02:35:05;100717.50;;;16.64;38.60
69145;BME280;56251;50.324;17.574;2023-04-24T02:37:19;100711.13;;;16.63;38.99
69145;BME280;56251;50.324;17.574;2023-04-24T02:38:13;100712.66;;;16.72;38.86
69145;BME280;56251;50.324;17.574;2023-04-24T02:40:26;100717.31;;;16.75;38.74
69145;BME280;56251;50.324;17.574;2023-04-24T02:41:20;100718.86;;;16.75;38.77
69145;BME280;56251;50.324;17.574;2023-04-24T02:43:32;100716.30;;;16.75;39.04
69145;BME280;56251;50.324;17.574;2023-04-24T02:44:31;100719.74;;;16.82;39.02
69145;BME280;56251;50.324;17.574;2023-04-24T02:46:43;100720.92;;;16.92;39.05
69145;BME280;56251;50.324;17.574;2023-04-24T02:47:37;100716.66;;;16.93;38.96
69145;BME280;56251;50.324;17.574;2023-04-24T02:49:50;100719.66;;;16.92;39.10
69145;BME280;56251;50.324;17.574;2023-04-24T02:50:44;100719.63;;;16.90;39.53
69145;BME280;56251;50.324;17.574;2023-04-24T02:52:56;100715.05;;;16.93;39.38
69145;BME280;56251;50.324;17.574;2023-04-24T02:53:50;100712.91;;;16.78;39.75
69145;BME280;56251;50.324;17.574;2023-04-24T02:56:02;100715.57;;;16.68;40.38
69145;BME280;56251;50.324;17.574;2023-04-24T02:56:56;100718.01;;;16.64;40.35
69145;BME280;56251;50.324;17.574;2023-04-24T02:59:08;100713.89;;;16.65;40.59
69145;BME280;56251;50.324;17.574;2023-04-24T03:00:03;100712.09;;;16.61;40.88
69145;BME280;56251;50.324;17.574;2023-04-24T03:02:15;100711.84;;;16.67;41.46
69145;BME280;56251;50.324;17.574;2023-04-24T03:03:16;100712.23;;;16.68;41.38
69145;BME280;56251;50.324;17.574;2023-04-24T03:05:21;100711.23;;;16.51;42.12
69145;BME280;56251;50.324;17.574;2023-04-24T03:06:22;100713.30;;;16.54;42.45
69145;BME280;56251;50.324;17.574;2023-04-24T03:08:29;100716.32;;;16.21;42.17
69145;BME280;56251;50.324;17.574;2023-04-24T03:09:30;100715.95;;;16.32;42.34
69145;BME280;56251;50.324;17.574;2023-04-24T03:11:36;100715.45;;;16.37;42.25
69145;BME280;56251;50.324;17.574;2023-04-24T03:12:37;100711.42;;;16.38;42.25
69145;BME280;56251;50.324;17.574;2023-04-24T03:14:44;100714.44;;;16.44;42.24
69145;BME280;56251;50.324;17.574;2023-04-24T03:15:44;100710.67;;;16.46;42.23
69145;BME280;56251;50.324;17.574;2023-04-24T03:17:49;100713.91;;;16.31;42.59
69145;BME280;56251;50.324;17.574;2023-04-24T03:18:52;100715.92;;;16.22;43.32
69145;BME280;56251;50.324;17.574;2023-04-24T03:21:01;100717.68;;;16.36;43.73
69145;BME280;56251;50.324;17.574;2023-04-24T03:22:01;100720.07;;;16.47;43.81
69145;BME280;56251;50.324;17.574;2023-04-24T03:24:08;100722.13;;;16.35;44.74
69145;BME280;56251;50.324;17.574;2023-04-24T03:25:08;100720.55;;;16.20;45.43
69145;BME280;56251;50.324;17.574;2023-04-24T03:27:14;100720.33;;;16.20;45.94
69145;BME280;56251;50.324;17.574;2023-04-24T03:28:16;100718.18;;;16.01;46.17
69145;BME280;56251;50.324;17.574;2023-04-24T03:30:21;100723.48;;;16.03;46.53
69145;BME280;56251;50.324;17.574;2023-04-24T03:31:24;100721.96;;;16.05;46.84
69145;BME280;56251;50.324;17.574;2023-04-24T03:33:27;100721.13;;;15.88;47.10
69145;BME280;56251;50.324;17.574;2023-04-24T03:34:30;100726.23;;;15.90;47.31
69145;BME280;56251;50.324;17.574;2023-04-24T03:36:34;100723.03;;;15.87;47.70
69145;BME280;56251;50.324;17.574;2023-04-24T03:37:40;100724.57;;;15.94;47.71
69145;BME280;56251;50.324;17.574;2023-04-24T03:39:40;100722.47;;;15.93;48.11
69145;BME280;56251;50.324;17.574;2023-04-24T03:40:47;100723.88;;;15.95;47.97
69145;BME280;56251;50.324;17.574;2023-04-24T03:42:46;100722.88;;;15.98;47.79
69145;BME280;56251;50.324;17.574;2023-04-24T03:43:53;100727.11;;;16.01;47.70
69145;BME280;56251;50.324;17.574;2023-04-24T03:45:52;100723.54;;;15.93;47.72
69145;BME280;56251;50.324;17.574;2023-04-24T03:47:00;100723.76;;;15.85;47.34
69145;BME280;56251;50.324;17.574;2023-04-24T03:48:58;100725.53;;;15.77;47.80
69145;BME280;56251;50.324;17.574;2023-04-24T03:50:08;100732.29;;;15.54;48.13
69145;BME280;56251;50.324;17.574;2023-04-24T03:52:06;100724.23;;;15.70;48.12
69145;BME280;56251;50.324;17.574;2023-04-24T03:53:16;100726.25;;;15.74;48.52
69145;BME280;56251;50.324;17.574;2023-04-24T03:55:12;100727.19;;;15.77;48.75
69145;BME280;56251;50.324;17.574;2023-04-24T03:56:23;100733.01;;;15.75;49.08
69145;BME280;56251;50.324;17.574;2023-04-24T03:58:18;100735.60;;;15.79;48.77
69145;BME280;56251;50.324;17.574;2023-04-24T03:59:29;100737.56;;;15.82;49.14
69145;BME280;56251;50.324;17.574;2023-04-24T04:01:25;100734.64;;;15.78;49.26
69145;BME280;56251;50.324;17.574;2023-04-24T04:02:35;100740.21;;;15.73;48.88
69145;BME280;56251;50.324;17.574;2023-04-24T04:04:31;100735.28;;;15.63;48.87
69145;BME280;56251;50.324;17.574;2023-04-24T04:05:43;100738.87;;;15.63;49.07
69145;BME280;56251;50.324;17.574;2023-04-24T04:07:38;100737.32;;;15.65;48.87
69145;BME280;56251;50.324;17.574;2023-04-24T04:08:50;100738.24;;;15.70;49.00
69145;BME280;56251;50.324;17.574;2023-04-24T04:10:45;100736.33;;;15.73;49.51
69145;BME280;56251;50.324;17.574;2023-04-24T04:11:58;100735.25;;;15.71;49.04
69145;BME280;56251;50.324;17.574;2023-04-24T04:13:52;100741.26;;;15.81;48.92
69145;BME280;56251;50.324;17.574;2023-04-24T04:15:04;100739.80;;;15.87;48.78
69145;BME280;56251;50.324;17.574;2023-04-24T04:17:00;100736.77;;;15.93;47.88
69145;BME280;56251;50.324;17.574;2023-04-24T04:18:13;100735.20;;;15.93;48.00
69145;BME280;56251;50.324;17.574;2023-04-24T04:20:07;100736.29;;;15.92;48.14
69145;BME280;56251;50.324;17.574;2023-04-24T04:21:19;100737.66;;;15.86;46.29
69145;BME280;56251;50.324;17.574;2023-04-24T04:23:17;100737.28;;;15.83;46.84
69145;BME280;56251;50.324;17.574;2023-04-24T04:24:27;100735.68;;;15.78;47.47
69145;BME280;56251;50.324;17.574;2023-04-24T04:26:23;100734.24;;;15.93;46.83
69145;BME280;56251;50.324;17.574;2023-04-24T04:27:35;100737.26;;;15.89;47.54
69145;BME280;56251;50.324;17.574;2023-04-24T04:29:32;100735.07;;;16.01;45.94
69145;BME280;56251;50.324;17.574;2023-04-24T04:30:42;100733.20;;;16.11;44.94
69145;BME280;56251;50.324;17.574;2023-04-24T04:32:38;100731.38;;;16.10;44.32
69145;BME280;56251;50.324;17.574;2023-04-24T04:33:48;100731.98;;;16.18;44.03
69145;BME280;56251;50.324;17.574;2023-04-24T04:35:44;100737.77;;;16.33;43.48
69145;BME280;56251;50.324;17.574;2023-04-24T04:36:54;100738.30;;;16.40;43.23
69145;BME280;56251;50.324;17.574;2023-04-24T04:38:51;100733.98;;;16.52;42.82
69145;BME280;56251;50.324;17.574;2023-04-24T04:40:02;100733.95;;;16.59;42.98
69145;BME280;56251;50.324;17.574;2023-04-24T04:41:57;100736.87;;;16.62;42.99
69145;BME280;56251;50.324;17.574;2023-04-24T04:43:17;100739.40;;;16.68;42.96
69145;BME280;56251;50.324;17.574;2023-04-24T04:45:05;100740.75;;;16.86;42.40
69145;BME280;56251;50.324;17.574;2023-04-24T04:46:23;100736.97;;;16.97;41.97
69145;BME280;56251;50.324;17.574;2023-04-24T04:48:14;100740.84;;;17.06;41.47
69145;BME280;56251;50.324;17.574;2023-04-24T04:49:32;100739.92;;;17.07;41.70
69145;BME280;56251;50.324;17.574;2023-04-24T04:51:21;100742.77;;;17.11;43.13
69145;BME280;56251;50.324;17.574;2023-04-24T04:52:41;100743.00;;;17.22;42.85
69145;BME280;56251;50.324;17.574;2023-04-24T04:54:28;100743.80;;;17.36;42.19
69145;BME280;56251;50.324;17.574;2023-04-24T04:55:48;100743.20;;;17.45;42.39
69145;BME280;56251;50.324;17.574;2023-04-24T04:57:34;100739.63;;;17.44;41.60
69145;BME280;56251;50.324;17.574;2023-04-24T04:58:54;100743.54;;;17.50;41.94
69145;BME280;56251;50.324;17.574;2023-04-24T05:00:41;100744.81;;;17.72;40.76
69145;BME280;56251;50.324;17.574;2023-04-24T05:02:02;100743.32;;;17.78;40.64
69145;BME280;56251;50.324;17.574;2023-04-24T05:03:47;100738.34;;;17.93;40.29
69145;BME280;56251;50.324;17.574;2023-04-24T05:05:09;100739.68;;;18.02;40.40
69145;BME280;56251;50.324;17.574;2023-04-24T05:06:55;100740.86;;;18.15;40.20
69145;BME280;56251;50.324;17.574;2023-04-24T05:08:17;100738.18;;;18.20;40.18
69145;BME280;56251;50.324;17.574;2023-04-24T05:10:03;100739.91;;;18.21;40.13
69145;BME280;56251;50.324;17.574;2023-04-24T05:11:24;100740.99;;;18.28;39.85
69145;BME280;56251;50.324;17.574;2023-04-24T05:13:16;100739.24;;;18.38;40.01
69145;BME280;56251;50.324;17.574;2023-04-24T05:14:30;100731.71;;;18.46;40.02
69145;BME280;56251;50.324;17.574;2023-04-24T05:16:22;100729.20;;;18.59;38.98
69145;BME280;56251;50.324;17.574;2023-04-24T05:17:41;100734.24;;;18.63;39.12
69145;BME280;56251;50.324;17.574;2023-04-24T05:19:28;100727.81;;;18.71;39.32
69145;BME280;56251;50.324;17.574;2023-04-24T05:20:48;100736.15;;;18.80;39.81
69145;BME280;56251;50.324;17.574;2023-04-24T05:22:35;100730.99;;;18.81;39.33
69145;BME280;56251;50.324;17.574;2023-04-24T05:23:55;100732.31;;;18.79;39.42
69145;BME280;56251;50.324;17.574;2023-04-24T05:25:43;100731.66;;;18.72;39.48
69145;BME280;56251;50.324;17.574;2023-04-24T05:27:02;100730.98;;;18.72;39.54
69145;BME280;56251;50.324;17.574;2023-04-24T05:28:49;100731.59;;;18.75;39.73
69145;BME280;56251;50.324;17.574;2023-04-24T05:30:08;100727.50;;;18.77;39.28
69145;BME280;56251;50.324;17.574;2023-04-24T05:32:02;100726.95;;;18.64;39.77
69145;BME280;56251;50.324;17.574;2023-04-24T05:33:15;100727.51;;;18.48;40.16
69145;BME280;56251;50.324;17.574;2023-04-24T05:35:08;100726.01;;;18.56;40.41
69145;BME280;56251;50.324;17.574;2023-04-24T05:36:27;100729.34;;;18.57;40.17
69145;BME280;56251;50.324;17.574;2023-04-24T05:38:14;100731.98;;;18.57;40.41
69145;BME280;56251;50.324;17.574;2023-04-24T05:39:34;100730.99;;;18.55;40.47
69145;BME280;56251;50.324;17.574;2023-04-24T05:41:26;100722.80;;;18.70;40.27
69145;BME280;56251;50.324;17.574;2023-04-24T05:42:42;100726.13;;;18.68;40.61
69145;BME280;56251;50.324;17.574;2023-04-24T05:44:32;100727.12;;;18.79;40.31
69145;BME280;56251;50.324;17.574;2023-04-24T05:45:50;100727.45;;;18.75;40.38
69145;BME280;56251;50.324;17.574;2023-04-24T05:47:38;100727.96;;;18.75;40.45
69145;BME280;56251;50.324;17.574;2023-04-24T05:48:57;100723.28;;;18.74;40.67
69145;BME280;56251;50.324;17.574;2023-04-24T05:50:50;100719.98;;;18.67;40.75
69145;BME280;56251;50.324;17.574;2023-04-24T05:52:04;100719.88;;;18.55;40.92
69145;BME280;56251;50.324;17.574;2023-04-24T05:53:59;100718.28;;;18.52;41.30
69145;BME280;56251;50.324;17.574;2023-04-24T05:55:19;100722.48;;;18.43;41.73
69145;BME280;56251;50.324;17.574;2023-04-24T05:57:06;100721.90;;;18.40;41.91
69145;BME280;56251;50.324;17.574;2023-04-24T05:58:25;100725.80;;;18.40;42.11
69145;BME280;56251;50.324;17.574;2023-04-24T06:00:13;100725.77;;;18.25;42.41
69145;BME280;56251;50.324;17.574;2023-04-24T06:01:31;100729.70;;;18.19;42.96
69145;BME280;56251;50.324;17.574;2023-04-24T06:03:19;100727.27;;;18.27;42.55
69145;BME280;56251;50.324;17.574;2023-04-24T06:04:38;100729.01;;;18.23;42.81
69145;BME280;56251;50.324;17.574;2023-04-24T06:06:27;100731.67;;;18.37;43.39
69145;BME280;56251;50.324;17.574;2023-04-24T06:07:45;100728.45;;;18.41;42.81
69145;BME280;56251;50.324;17.574;2023-04-24T06:09:39;100729.06;;;18.56;43.07
69145;BME280;56251;50.324;17.574;2023-04-24T06:10:52;100727.30;;;18.69;42.94
69145;BME280;56251;50.324;17.574;2023-04-24T06:12:45;100727.98;;;18.84;42.72
69145;BME280;56251;50.324;17.574;2023-04-24T06:14:04;100726.86;;;18.87;42.08
69145;BME280;56251;50.324;17.574;2023-04-24T06:15:52;100734.82;;;18.93;42.26
69145;BME280;56251;50.324;17.574;2023-04-24T06:17:11;100728.25;;;19.01;41.92
69145;BME280;56251;50.324;17.574;2023-04-24T06:18:58;100732.30;;;18.92;42.31
69145;BME280;56251;50.324;17.574;2023-04-24T06:20:19;100729.20;;;18.89;42.09
69145;BME280;56251;50.324;17.574;2023-04-24T06:22:05;100729.54;;;18.85;42.49
69145;BME280;56251;50.324;17.574;2023-04-24T06:23:26;100728.72;;;18.82;42.97
69145;BME280;56251;50.324;17.574;2023-04-24T06:25:13;100730.73;;;18.85;42.97
69145;BME280;56251;50.324;17.574;2023-04-24T06:26:32;100723.28;;;18.90;42.29
69145;BME280;56251;50.324;17.574;2023-04-24T06:28:26;100723.71;;;18.86;42.85
69145;BME280;56251;50.324;17.574;2023-04-24T06:29:38;100723.27;;;18.85;42.57
69145;BME280;56251;50.324;17.574;2023-04-24T06:31:34;100723.95;;;18.86;43.00
69145;BME280;56251;50.324;17.574;2023-04-24T06:32:45;100727.16;;;18.81;43.03
69145;BME280;56251;50.324;17.574;2023-04-24T06:34:42;100728.67;;;18.72;43.39
69145;BME280;56251;50.324;17.574;2023-04-24T06:35:51;100727.19;;;18.77;43.71
69145;BME280;56251;50.324;17.574;2023-04-24T06:37:48;100726.14;;;18.77;43.65
69145;BME280;56251;50.324;17.574;2023-04-24T06:38:57;100727.93;;;18.73;43.72
69145;BME280;56251;50.324;17.574;2023-04-24T06:40:55;100726.02;;;18.73;43.63
69145;BME280;56251;50.324;17.574;2023-04-24T06:42:03;100723.67;;;18.65;43.59
69145;BME280;56251;50.324;17.574;2023-04-24T06:44:03;100727.47;;;18.63;44.03
69145;BME280;56251;50.324;17.574;2023-04-24T06:45:09;100724.48;;;18.75;44.39
69145;BME280;56251;50.324;17.574;2023-04-24T06:47:10;100725.02;;;18.81;43.74
69145;BME280;56251;50.324;17.574;2023-04-24T06:48:17;100726.72;;;18.76;43.35
69145;BME280;56251;50.324;17.574;2023-04-24T06:50:18;100724.44;;;18.91;43.29
69145;BME280;56251;50.324;17.574;2023-04-24T06:51:24;100723.95;;;18.93;44.09
69145;BME280;56251;50.324;17.574;2023-04-24T06:53:26;100720.55;;;19.02;43.32
69145;BME280;56251;50.324;17.574;2023-04-24T06:54:31;100723.23;;;19.05;43.38
69145;BME280;56251;50.324;17.574;2023-04-24T06:56:33;100720.54;;;18.94;43.62
69145;BME280;56251;50.324;17.574;2023-04-24T06:57:38;100719.52;;;18.99;43.60
69145;BME280;56251;50.324;17.574;2023-04-24T06:59:39;100718.92;;;19.12;43.61
69145;BME280;56251;50.324;17.574;2023-04-24T07:00:45;100718.55;;;19.18;43.26
69145;BME280;56251;50.324;17.574;2023-04-24T07:02:51;100722.97;;;19.27;42.47
69145;BME280;56251;50.324;17.574;2023-04-24T07:03:57;100719.60;;;19.24;43.16
69145;BME280;56251;50.324;17.574;2023-04-24T07:05:58;100718.18;;;19.19;42.95
69145;BME280;56251;50.324;17.574;2023-04-24T07:07:04;100724.83;;;19.13;43.09
69145;BME280;56251;50.324;17.574;2023-04-24T07:09:05;100721.27;;;19.09;43.04
69145;BME280;56251;50.324;17.574;2023-04-24T07:10:12;100713.91;;;19.09;42.59
69145;BME280;56251;50.324;17.574;2023-04-24T07:12:11;100717.93;;;18.95;42.66
69145;BME280;56251;50.324;17.574;2023-04-24T07:13:20;100710.12;;;18.92;43.05
69145;BME280;56251;50.324;17.574;2023-04-24T07:15:20;100716.91;;;18.92;43.20
69145;BME280;56251;50.324;17.574;2023-04-24T07:16:26;100717.62;;;18.76;43.11
69145;BME280;56251;50.324;17.574;2023-04-24T07:18:26;100715.19;;;18.73;42.94
69145;BME280;56251;50.324;17.574;2023-04-24T07:19:35;100715.43;;;18.83;42.81
69145;BME280;56251;50.324;17.574;2023-04-24T07:21:38;100716.61;;;19.00;42.27
69145;BME280;56251;50.324;17.574;2023-04-24T07:22:44;100721.50;;;19.00;42.07
69145;BME280;56251;50.324;17.574;2023-04-24T07:24:44;100714.38;;;18.98;42.54
69145;BME280;56251;50.324;17.574;2023-04-24T07:25:50;100715.05;;;19.08;42.91
69145;BME280;56251;50.324;17.574;2023-04-24T07:27:50;100718.52;;;19.19;42.56
69145;BME280;56251;50.324;17.574;2023-04-24T07:28:56;100713.44;;;19.16;42.26
69145;BME280;56251;50.324;17.574;2023-04-24T07:30:56;100713.70;;;19.39;42.20
69145;BME280;56251;50.324;17.574;2023-04-24T07:32:04;100709.38;;;19.51;41.71
69145;BME280;56251;50.324;17.574;2023-04-24T07:34:04;100719.55;;;19.55;41.01
69145;BME280;56251;50.324;17.574;2023-04-24T07:35:11;100717.73;;;19.50;40.91
69145;BME280;56251;50.324;17.574;2023-04-24T07:37:10;100718.86;;;19.40;41.41
69145;BME280;56251;50.324;17.574;2023-04-24T07:38:19;100714.62;;;19.40;41.40
69145;BME280;56251;50.324;17.574;2023-04-24T07:40:22;100717.67;;;19.40;40.73
69145;BME280;56251;50.324;17.574;2023-04-24T07:41:28;100705.42;;;19.32;41.35
69145;BME280;56251;50.324;17.574;2023-04-24T07:43:28;100713.66;;;19.20;41.31
69145;BME280;56251;50.324;17.574;2023-04-24T07:44:34;100714.52;;;19.20;41.84
69145;BME280;56251;50.324;17.574;2023-04-24T07:46:35;100714.01;;;19.28;42.09
69145;BME280;56251;50.324;17.574;2023-04-24T07:47:42;100711.59;;;19.21;41.36
69145;BME280;56251;50.324;17.574;2023-04-24T07:49:42;100710.00;;;19.18;42.19
69145;BME280;56251;50.324;17.574;2023-04-24T07:50:53;100710.89;;;19.10;42.00
69145;BME280;56251;50.324;17.574;2023-04-24T07:52:50;100712.38;;;19.19;41.79
69145;BME280;56251;50.324;17.574;2023-04-24T07:54:00;100712.21;;;19.19;41.70
69145;BME280;56251;50.324;17.574;2023-04-24T07:55:57;100707.94;;;19.12;42.16
69145;BME280;56251;50.324;17.574;2023-04-24T07:57:08;100710.98;;;19.17;42.25
69145;BME280;56251;50.324;17.574;2023-04-24T07:59:07;100710.18;;;19.19;41.81
69145;BME280;56251;50.324;17.574;2023-04-24T08:00:16;100714.92;;;19.10;42.31
69145;BME280;56251;50.324;17.574;2023-04-24T08:02:17;100712.98;;;19.11;42.47
69145;BME280;56251;50.324;17.574;2023-04-24T08:03:23;100713.53;;;19.09;42.19